createdAt,value
2019-03-12T00:00:08.696Z,99.90
2019-03-12T00:02:42.673Z,99.90
2019-03-12T00:05:14.578Z,99.90
2019-03-12T00:07:46.847Z,99.90
2019-03-12T00:10:18.737Z,99.90
2019-03-12T00:12:50.647Z,99.90
2019-03-12T00:15:22.904Z,99.90
2019-03-12T00:17:54.815Z,99.90
2019-03-12T00:20:27.294Z,99.90
2019-03-12T00:22:59.164Z,99.90
2019-03-12T00:25:30.948Z,99.90
2019-03-12T00:28:02.783Z,99.90
2019-03-12T00:30:34.638Z,99.90
2019-03-12T00:33:07.020Z,99.90
2019-03-12T00:35:38.850Z,99.90
2019-03-12T00:38:10.703Z,99.90
2019-03-12T00:40:42.587Z,99.90
2019-03-12T00:43:14.503Z,99.90
2019-03-12T00:45:47.004Z,99.90
2019-03-12T00:48:18.830Z,99.90
2019-03-12T00:50:50.678Z,99.90
2019-03-12T00:53:23.079Z,99.90
2019-03-12T00:55:55.256Z,99.90
2019-03-12T00:58:27.128Z,99.90
2019-03-12T01:00:59.990Z,99.90
2019-03-12T01:03:32.382Z,99.90
2019-03-12T01:06:05.426Z,99.90
2019-03-12T01:08:37.335Z,99.90
2019-03-12T01:11:09.706Z,99.90
2019-03-12T01:13:41.561Z,99.90
2019-03-12T01:16:13.454Z,99.90
2019-03-12T01:18:45.301Z,99.90
2019-03-12T01:21:18.051Z,99.90
2019-03-12T01:23:49.931Z,99.90
2019-03-12T01:26:30.221Z,99.90
2019-03-12T01:29:02.121Z,99.90
2019-03-12T01:31:34.009Z,99.90
2019-03-12T01:34:05.860Z,99.90
2019-03-12T01:36:38.140Z,99.90
2019-03-12T01:39:10.057Z,99.90
2019-03-12T01:41:41.963Z,99.90
2019-03-12T01:44:13.859Z,99.90
2019-03-12T01:46:45.690Z,99.90
2019-03-12T01:49:17.663Z,99.90
2019-03-12T01:51:49.515Z,99.90
2019-03-12T01:54:23.535Z,99.90
2019-03-12T01:56:55.410Z,99.90
2019-03-12T01:59:27.299Z,99.90
2019-03-12T02:01:59.155Z,99.90
2019-03-12T02:04:31.030Z,99.90
2019-03-12T02:07:02.877Z,99.90
2019-03-12T02:09:35.431Z,99.90
2019-03-12T02:12:07.265Z,99.90
2019-03-12T02:14:39.129Z,99.90
2019-03-12T02:17:11.497Z,99.90
2019-03-12T02:19:43.991Z,99.90
2019-03-12T02:22:15.892Z,99.90
2019-03-12T02:24:52.820Z,99.90
2019-03-12T02:27:21.810Z,99.90
2019-03-12T02:29:53.640Z,99.90
2019-03-12T02:32:25.535Z,99.90
2019-03-12T02:34:57.923Z,99.90
2019-03-12T02:37:29.732Z,99.90
2019-03-12T02:40:01.582Z,99.90
2019-03-12T02:42:33.452Z,99.90
2019-03-12T02:45:06.374Z,99.90
2019-03-12T02:47:38.359Z,99.90
2019-03-12T02:50:11.723Z,99.90
2019-03-12T02:52:43.696Z,99.90
2019-03-12T02:55:16.470Z,99.90
2019-03-12T02:57:48.351Z,99.90
2019-03-12T03:00:22.105Z,99.90
2019-03-12T03:02:54.400Z,99.90
2019-03-12T03:05:26.732Z,99.90
2019-03-12T03:08:01.321Z,99.90
2019-03-12T03:10:33.242Z,99.90
2019-03-12T03:13:05.647Z,99.90
2019-03-12T03:15:41.392Z,99.90
2019-03-12T03:18:13.665Z,99.90
2019-03-12T03:20:46.088Z,99.90
2019-03-12T03:23:18.021Z,99.90
2019-03-12T03:25:50.461Z,99.90
2019-03-12T03:28:22.272Z,99.90
2019-03-12T03:30:55.753Z,99.90
2019-03-12T03:33:28.176Z,99.90
2019-03-12T03:36:01.012Z,99.90
2019-03-12T03:38:33.213Z,99.90
2019-03-12T03:41:05.128Z,99.90
2019-03-12T03:43:37.039Z,99.90
2019-03-12T03:46:09.602Z,99.90
2019-03-12T03:48:41.461Z,99.90
2019-03-12T03:51:13.285Z,99.90
2019-03-12T03:53:45.733Z,99.90
2019-03-12T03:56:17.692Z,99.90
2019-03-12T03:58:49.968Z,99.90
2019-03-12T04:01:21.816Z,99.90
2019-03-12T04:03:53.675Z,99.90
2019-03-12T04:06:25.402Z,99.90
2019-03-12T04:08:57.997Z,99.90
2019-03-12T04:11:29.820Z,99.90
2019-03-12T04:14:02.309Z,99.90
2019-03-12T04:16:34.647Z,99.90
2019-03-12T04:19:06.572Z,99.90
2019-03-12T04:21:39.457Z,99.90
2019-03-12T04:24:11.412Z,99.90
2019-03-12T04:26:43.248Z,99.90
2019-03-12T04:29:15.613Z,99.90
2019-03-12T04:31:47.543Z,99.90
2019-03-12T04:34:28.861Z,99.90
2019-03-12T04:37:00.670Z,99.90
2019-03-12T04:39:32.566Z,99.90
2019-03-12T04:42:04.469Z,99.90
2019-03-12T04:44:36.507Z,99.90
2019-03-12T04:47:08.414Z,99.90
2019-03-12T04:49:40.359Z,99.90
2019-03-12T04:52:12.263Z,99.90
2019-03-12T04:54:44.086Z,99.90
2019-03-12T04:57:16.596Z,99.90
2019-03-12T04:59:48.456Z,99.90
2019-03-12T05:02:20.391Z,99.90
2019-03-12T05:04:52.708Z,99.90
2019-03-12T05:07:24.550Z,99.90
2019-03-12T05:09:56.450Z,99.90
2019-03-12T05:12:30.663Z,99.90
2019-03-12T05:15:02.282Z,99.90
2019-03-12T05:17:36.293Z,99.90
2019-03-12T05:20:11.017Z,99.90
2019-03-12T05:22:43.316Z,99.90
2019-03-12T05:25:15.413Z,99.90
2019-03-12T05:27:47.266Z,99.90
2019-03-12T05:30:24.442Z,99.90
2019-03-12T05:32:56.473Z,99.90
2019-03-12T05:35:28.395Z,99.90
2019-03-12T05:38:00.288Z,99.90
2019-03-12T05:40:32.197Z,99.90
2019-03-12T05:43:05.366Z,99.90
2019-03-12T05:45:37.286Z,99.90
2019-03-12T05:48:09.161Z,99.90
2019-03-12T05:50:41.640Z,99.90
2019-03-12T05:53:14.357Z,99.90
2019-03-12T05:55:46.232Z,99.90
2019-03-12T05:58:18.602Z,99.90
2019-03-12T06:00:56.445Z,99.90
2019-03-12T06:03:31.040Z,99.90
2019-03-12T06:06:07.323Z,99.90
2019-03-12T06:08:39.316Z,99.90
2019-03-12T06:11:11.583Z,99.90
2019-03-12T06:13:45.471Z,99.90
2019-03-12T06:16:17.438Z,99.90
2019-03-12T06:19:07.100Z,99.90
2019-03-12T06:21:39.984Z,99.90
2019-03-12T06:24:13.014Z,99.90
2019-03-12T06:26:46.071Z,99.90
2019-03-12T06:29:17.910Z,99.90
2019-03-12T06:32:07.654Z,99.90
2019-03-12T06:34:52.547Z,99.90
2019-03-12T06:37:53.033Z,99.90
2019-03-12T06:40:35.541Z,99.90
2019-03-12T06:43:21.774Z,99.90
2019-03-12T06:46:11.863Z,99.90
2019-03-12T06:49:09.127Z,99.90
2019-03-12T06:51:59.570Z,99.90
2019-03-12T06:54:38.737Z,99.90
2019-03-12T06:57:32.339Z,99.90
2019-03-12T07:00:29.179Z,99.90
2019-03-12T07:03:27.319Z,99.90
2019-03-12T07:06:20.814Z,99.90
2019-03-12T07:09:10.112Z,99.90
2019-03-12T07:11:49.471Z,99.90
2019-03-12T07:14:46.833Z,99.90
2019-03-12T07:17:36.170Z,99.90
2019-03-12T07:20:27.200Z,99.90
2019-03-12T07:23:12.592Z,99.90
2019-03-12T07:26:06.538Z,99.90
2019-03-12T07:29:15.583Z,99.90
2019-03-12T07:32:09.029Z,99.90
2019-03-12T07:35:02.521Z,99.90
2019-03-12T07:37:52.922Z,99.90
2019-03-12T07:40:40.243Z,99.90
2019-03-12T07:43:31.942Z,99.90
2019-03-12T07:46:10.404Z,99.90
2019-03-12T07:49:00.451Z,99.90
2019-03-12T07:51:51.634Z,99.90
2019-03-12T07:54:40.836Z,99.90
2019-03-12T07:57:31.658Z,99.90
2019-03-12T08:00:12.487Z,99.90
2019-03-12T08:03:01.771Z,99.90
2019-03-12T08:05:55.947Z,99.90
2019-03-12T08:08:36.277Z,99.90
2019-03-12T08:11:21.219Z,99.90
2019-03-12T08:14:18.671Z,99.90
2019-03-12T08:17:09.345Z,99.90
2019-03-12T08:20:15.947Z,99.90
2019-03-12T08:22:59.656Z,99.90
2019-03-12T08:26:08.899Z,99.90
2019-03-12T08:28:47.796Z,99.90
2019-03-12T08:31:29.542Z,99.90
2019-03-12T08:34:35.321Z,99.90
2019-03-12T08:37:14.744Z,99.90
2019-03-12T08:40:00.474Z,99.90
2019-03-12T08:42:53.756Z,99.90
2019-03-12T08:45:41.248Z,99.90
2019-03-12T08:48:41.238Z,99.90
2019-03-12T08:51:50.128Z,99.90
2019-03-12T08:54:29.276Z,99.90
2019-03-12T08:57:19.123Z,99.90
2019-03-12T09:00:10.259Z,99.90
2019-03-12T09:02:52.053Z,99.90
2019-03-12T09:05:54.674Z,99.10
2019-03-12T09:08:36.815Z,97.10
2019-03-12T09:11:30.623Z,97.30
2019-03-12T09:14:33.591Z,93.60
2019-03-12T09:17:24.809Z,93.80
2019-03-12T09:20:20.081Z,93.60
2019-03-12T09:23:13.608Z,91.50
2019-03-12T09:26:03.056Z,92.10
2019-03-12T09:29:00.468Z,92.70
2019-03-12T09:31:50.469Z,86.50
2019-03-12T09:34:51.286Z,86.40
2019-03-12T09:37:31.877Z,84.20
2019-03-12T09:40:10.905Z,82.00
2019-03-12T09:43:07.743Z,78.90
2019-03-12T09:45:55.164Z,75.90
2019-03-12T09:48:36.128Z,77.70
2019-03-12T09:51:27.199Z,75.70
2019-03-12T09:54:10.273Z,73.40
2019-03-12T09:57:01.007Z,77.40
2019-03-12T09:59:52.711Z,74.70
2019-03-12T10:02:52.373Z,73.30
2019-03-12T10:05:49.820Z,73.00
2019-03-12T10:08:56.390Z,78.50
2019-03-12T10:11:38.197Z,75.50
2019-03-12T10:14:41.252Z,70.00
2019-03-12T10:17:45.080Z,69.00
2019-03-12T10:20:34.924Z,67.90
2019-03-12T10:23:24.439Z,69.30
2019-03-12T10:26:21.387Z,69.10
2019-03-12T10:29:15.582Z,68.00
2019-03-12T10:32:09.304Z,65.70
2019-03-12T10:35:18.180Z,64.90
2019-03-12T10:38:14.118Z,63.00
2019-03-12T10:41:08.372Z,64.70
2019-03-12T10:43:55.563Z,66.90
2019-03-12T10:46:50.039Z,65.10
2019-03-12T10:49:36.643Z,62.90
2019-03-12T10:51:55.971Z,62.60
2019-03-12T10:54:29.223Z,61.20
2019-03-12T10:57:01.088Z,60.80
2019-03-12T10:59:33.375Z,59.50
2019-03-12T11:02:06.518Z,60.50
2019-03-12T11:04:39.835Z,63.60
2019-03-12T11:07:16.867Z,61.30
2019-03-12T11:09:46.943Z,61.00
2019-03-12T11:12:18.803Z,63.40
2019-03-12T11:14:51.133Z,62.40
2019-03-12T11:17:23.811Z,60.00
2019-03-12T11:19:56.218Z,58.20
2019-03-12T11:22:28.692Z,58.20
2019-03-12T11:25:00.559Z,57.00
2019-03-12T11:27:32.914Z,57.80
2019-03-12T11:30:06.260Z,56.60
2019-03-12T11:32:39.122Z,57.30
2019-03-12T11:35:12.163Z,58.20
2019-03-12T11:37:44.063Z,56.20
2019-03-12T11:40:17.854Z,56.90
2019-03-12T11:42:50.638Z,56.60
2019-03-12T11:45:35.608Z,55.20
2019-03-12T11:47:57.184Z,55.50
2019-03-12T11:50:30.485Z,54.90
2019-03-12T11:53:02.566Z,54.50
2019-03-12T11:55:34.932Z,55.90
2019-03-12T11:58:07.177Z,54.40
2019-03-12T12:00:57.151Z,52.80
2019-03-12T12:03:29.553Z,53.60
2019-03-12T12:06:01.518Z,54.80
2019-03-12T12:08:34.037Z,53.90
2019-03-12T12:11:06.878Z,55.80
2019-03-12T12:13:40.277Z,55.60
2019-03-12T12:16:12.091Z,55.20
2019-03-12T12:18:43.972Z,56.20
2019-03-12T12:21:16.018Z,55.70
2019-03-12T12:23:48.875Z,54.70
2019-03-12T12:26:20.759Z,54.90
2019-03-12T12:28:53.239Z,54.80
2019-03-12T12:31:25.165Z,54.80
2019-03-12T12:33:57.502Z,54.60
2019-03-12T12:36:29.437Z,54.10
2019-03-12T12:39:01.330Z,53.70
2019-03-12T12:41:35.273Z,54.00
2019-03-12T12:44:08.166Z,54.70
2019-03-12T12:46:40.087Z,55.30
2019-03-12T12:49:13.123Z,55.40
2019-03-12T12:51:45.097Z,54.00
2019-03-12T12:54:17.390Z,53.40
2019-03-12T12:56:49.239Z,54.50
2019-03-12T12:59:21.818Z,55.60
2019-03-12T13:01:53.699Z,53.10
2019-03-12T13:04:26.303Z,53.60
2019-03-12T13:06:58.192Z,53.20
2019-03-12T13:09:30.569Z,51.60
2019-03-12T13:12:02.479Z,52.70
2019-03-12T13:14:41.405Z,51.20
2019-03-12T13:17:08.814Z,50.90
2019-03-12T13:19:40.767Z,49.90
2019-03-12T13:22:13.366Z,49.50
2019-03-12T13:24:45.801Z,50.60
2019-03-12T13:27:17.827Z,49.80
2019-03-12T13:29:49.659Z,48.60
2019-03-12T13:32:21.702Z,48.50
2019-03-12T13:34:54.034Z,49.00
2019-03-12T13:37:26.460Z,50.70
2019-03-12T13:39:58.432Z,48.20
2019-03-12T13:42:30.352Z,49.00
2019-03-12T13:45:02.331Z,50.20
2019-03-12T13:47:34.411Z,49.90
2019-03-12T13:50:07.135Z,49.00
2019-03-12T13:52:39.423Z,48.90
2019-03-12T13:55:11.889Z,47.70
2019-03-12T13:57:43.971Z,48.90
2019-03-12T14:00:18.260Z,50.40
2019-03-12T14:02:50.713Z,48.90
2019-03-12T14:05:22.603Z,47.80
2019-03-12T14:07:55.626Z,47.00
2019-03-12T14:10:27.680Z,45.90
2019-03-12T14:13:00.638Z,45.50
2019-03-12T14:15:32.567Z,45.80
2019-03-12T14:18:04.628Z,44.70
2019-03-12T14:20:47.940Z,45.20
2019-03-12T14:23:37.675Z,45.00
2019-03-12T14:26:10.467Z,46.80
2019-03-12T14:28:42.794Z,46.10
2019-03-12T14:31:15.062Z,45.10
2019-03-12T14:33:46.988Z,45.40
2019-03-12T14:36:19.594Z,46.70
2019-03-12T14:38:51.415Z,45.50
2019-03-12T14:41:23.435Z,46.20
2019-03-12T14:43:56.324Z,45.10
2019-03-12T14:46:28.350Z,46.40
2019-03-12T14:49:04.259Z,46.40
2019-03-12T14:52:05.995Z,45.20
2019-03-12T14:54:38.422Z,46.40
2019-03-12T14:57:10.741Z,46.40
2019-03-12T14:59:43.988Z,46.70
2019-03-12T15:02:15.919Z,46.00
2019-03-12T15:04:47.879Z,47.90
2019-03-12T15:07:19.790Z,47.30
2019-03-12T15:09:52.010Z,47.90
2019-03-12T15:12:23.948Z,47.60
2019-03-12T15:14:55.903Z,47.60
2019-03-12T15:17:28.375Z,49.00
2019-03-12T15:20:00.375Z,48.20
2019-03-12T15:22:32.800Z,48.00
2019-03-12T15:25:05.887Z,48.90
2019-03-12T15:27:37.724Z,49.70
2019-03-12T15:30:13.212Z,49.50
2019-03-12T15:32:45.738Z,49.30
2019-03-12T15:35:17.688Z,50.10
2019-03-12T15:37:50.118Z,50.00
2019-03-12T15:40:22.762Z,51.10
2019-03-12T15:42:55.232Z,50.50
2019-03-12T15:45:29.751Z,49.70
2019-03-12T15:48:02.533Z,49.20
2019-03-12T15:50:35.438Z,48.90
2019-03-12T15:53:07.875Z,48.50
2019-03-12T15:55:40.274Z,49.90
2019-03-12T15:58:12.657Z,49.30
2019-03-12T16:00:45.542Z,48.80
2019-03-12T16:03:18.039Z,50.70
2019-03-12T16:05:49.889Z,49.30
2019-03-12T16:08:22.379Z,49.70
2019-03-12T16:10:58.180Z,50.20
2019-03-12T16:13:28.423Z,49.30
2019-03-12T16:16:00.275Z,50.00
2019-03-12T16:18:33.122Z,50.40
2019-03-12T16:21:05.027Z,49.10
2019-03-12T16:23:36.938Z,49.70
2019-03-12T16:26:10.137Z,50.50
2019-03-12T16:28:42.014Z,49.20
2019-03-12T16:31:17.621Z,50.70
2019-03-12T16:33:50.456Z,49.20
2019-03-12T16:36:24.027Z,49.80
2019-03-12T16:38:56.392Z,49.00
2019-03-12T16:41:28.622Z,48.60
2019-03-12T16:44:00.966Z,48.50
2019-03-12T16:46:32.876Z,48.90
2019-03-12T16:49:06.701Z,49.20
2019-03-12T16:51:39.067Z,49.00
2019-03-12T16:54:11.386Z,50.00
2019-03-12T16:56:45.593Z,50.00
2019-03-12T16:59:17.622Z,49.60
2019-03-12T17:01:49.516Z,50.10
2019-03-12T17:04:21.362Z,51.00
2019-03-12T17:06:53.251Z,50.80
2019-03-12T17:09:25.931Z,50.60
2019-03-12T17:11:58.274Z,50.60
2019-03-12T17:14:38.710Z,52.20
2019-03-12T17:17:04.174Z,51.60
2019-03-12T17:19:36.037Z,51.10
2019-03-12T17:22:07.903Z,51.10
2019-03-12T17:24:39.774Z,51.00
2019-03-12T17:27:12.109Z,51.30
2019-03-12T17:29:44.035Z,52.10
2019-03-12T17:32:18.601Z,52.20
2019-03-12T17:34:51.111Z,52.30
2019-03-12T17:37:23.407Z,53.10
2019-03-12T17:39:55.310Z,53.10
2019-03-12T17:42:27.610Z,52.70
2019-03-12T17:45:00.433Z,52.90
2019-03-12T17:47:32.666Z,53.50
2019-03-12T17:50:05.483Z,53.10
2019-03-12T17:52:37.363Z,52.50
2019-03-12T17:55:10.699Z,52.90
2019-03-12T17:57:43.862Z,54.10
2019-03-12T18:00:18.968Z,53.30
2019-03-12T18:02:51.433Z,53.30
2019-03-12T18:05:23.863Z,53.70
2019-03-12T18:07:56.636Z,54.10
2019-03-12T18:10:29.549Z,53.70
2019-03-12T18:13:01.488Z,53.70
2019-03-12T18:15:34.635Z,52.90
2019-03-12T18:18:06.479Z,53.00
2019-03-12T18:20:39.087Z,53.20
2019-03-12T18:23:11.607Z,53.30
2019-03-12T18:25:43.887Z,53.90
2019-03-12T18:28:16.691Z,53.20
2019-03-12T18:30:49.557Z,52.50
2019-03-12T18:33:22.363Z,52.40
2019-03-12T18:35:55.185Z,52.50
2019-03-12T18:38:27.608Z,52.90
2019-03-12T18:40:59.521Z,53.30
2019-03-12T18:43:31.932Z,53.80
2019-03-12T18:46:04.493Z,54.10
2019-03-12T18:48:36.907Z,53.90
2019-03-12T18:51:09.350Z,53.50
2019-03-12T18:53:41.786Z,53.80
2019-03-12T18:56:14.190Z,53.90
2019-03-12T18:58:46.695Z,54.30
2019-03-12T19:01:19.087Z,55.30
2019-03-12T19:03:51.057Z,54.90
2019-03-12T19:06:23.594Z,55.70
2019-03-12T19:08:56.397Z,55.50
2019-03-12T19:11:29.304Z,54.00
2019-03-12T19:14:02.241Z,54.10
2019-03-12T19:16:35.095Z,54.70
2019-03-12T19:19:08.494Z,54.80
2019-03-12T19:21:41.734Z,54.20
2019-03-12T19:24:14.066Z,53.70
2019-03-12T19:26:45.868Z,55.30
2019-03-12T19:29:19.062Z,54.00
2019-03-12T19:32:09.938Z,53.70
2019-03-12T19:34:42.018Z,54.70
2019-03-12T19:37:14.465Z,54.50
2019-03-12T19:39:46.348Z,53.60
2019-03-12T19:42:18.751Z,55.30
2019-03-12T19:44:51.043Z,55.60
2019-03-12T19:47:22.945Z,55.00
2019-03-12T19:49:55.779Z,55.30
2019-03-12T19:52:27.711Z,55.90
2019-03-12T19:54:59.887Z,55.00
2019-03-12T19:57:31.867Z,53.40
2019-03-12T20:00:04.305Z,53.70
2019-03-12T20:02:37.826Z,53.50
2019-03-12T20:05:11.451Z,54.70
2019-03-12T20:07:43.436Z,53.10
2019-03-12T20:10:53.708Z,52.80
2019-03-12T20:14:02.318Z,52.70
2019-03-12T20:17:13.805Z,53.60
2019-03-12T20:20:21.746Z,53.60
2019-03-12T20:23:37.558Z,52.30
2019-03-12T20:26:46.070Z,53.30
2019-03-12T20:29:54.919Z,51.80
2019-03-12T20:33:06.877Z,51.50
2019-03-12T20:36:27.111Z,51.50
2019-03-12T20:39:38.752Z,53.20
2019-03-12T20:42:58.988Z,53.50
2019-03-12T20:46:10.748Z,51.40
2019-03-12T20:49:18.422Z,51.10
2019-03-12T20:53:04.570Z,51.20
2019-03-12T20:56:32.318Z,51.60
2019-03-12T20:59:49.815Z,49.60
2019-03-12T21:03:04.715Z,49.40
2019-03-12T21:06:12.460Z,51.30
2019-03-12T21:09:26.998Z,50.90
2019-03-12T21:12:35.603Z,51.40
2019-03-12T21:15:53.818Z,50.10
2019-03-12T21:19:21.367Z,50.30
2019-03-12T21:22:24.135Z,50.70
2019-03-12T21:25:34.608Z,50.30
2019-03-12T21:28:45.874Z,50.40
2019-03-12T21:31:17.765Z,50.10
2019-03-12T21:33:49.763Z,51.00
2019-03-12T21:36:23.668Z,49.80
2019-03-12T21:38:56.764Z,51.30
2019-03-12T21:41:31.163Z,49.90
2019-03-12T21:44:08.479Z,50.90
2019-03-12T21:46:41.679Z,50.70
2019-03-12T21:49:14.643Z,51.60
2019-03-12T21:51:46.880Z,51.00
2019-03-12T21:54:19.288Z,50.40
2019-03-12T21:56:51.637Z,51.20
2019-03-12T21:59:23.489Z,51.00
2019-03-12T22:01:56.250Z,51.70
2019-03-12T22:04:28.466Z,53.00
2019-03-12T22:07:00.363Z,51.80
2019-03-12T22:09:33.395Z,50.60
2019-03-12T22:12:05.601Z,50.40
2019-03-12T22:14:38.051Z,51.20
2019-03-12T22:17:09.981Z,50.00
2019-03-12T22:19:41.873Z,50.60
2019-03-12T22:22:33.024Z,52.50
2019-03-12T22:25:06.513Z,52.80
2019-03-12T22:27:38.398Z,51.10
2019-03-12T22:30:14.342Z,51.10
2019-03-12T22:32:46.830Z,51.20
2019-03-12T22:35:19.195Z,52.30
2019-03-12T22:37:51.139Z,52.30
2019-03-12T22:40:23.001Z,51.50
2019-03-12T22:42:55.418Z,51.60
2019-03-12T22:45:27.260Z,50.80
2019-03-12T22:47:59.217Z,51.20
2019-03-12T22:50:31.059Z,51.10
2019-03-12T22:53:02.882Z,51.60
2019-03-12T22:55:35.062Z,51.40
2019-03-12T22:58:07.424Z,51.60
2019-03-12T23:00:58.332Z,51.10
2019-03-12T23:03:48.587Z,52.60
2019-03-12T23:06:38.439Z,51.90
2019-03-12T23:09:29.854Z,51.90
2019-03-12T23:12:04.087Z,52.40
2019-03-12T23:14:37.911Z,52.00
2019-03-12T23:17:10.899Z,53.80
2019-03-12T23:19:44.504Z,51.30
2019-03-12T23:22:17.626Z,52.30
2019-03-12T23:24:49.910Z,51.30
2019-03-12T23:27:21.784Z,52.60
2019-03-12T23:29:53.715Z,51.30
2019-03-12T23:32:25.766Z,51.70
2019-03-12T23:34:58.496Z,52.50
2019-03-12T23:37:30.880Z,51.80
2019-03-12T23:40:02.730Z,51.80
2019-03-12T23:42:34.927Z,51.60
2019-03-12T23:45:07.834Z,52.60
2019-03-12T23:47:39.678Z,52.20
2019-03-12T23:50:12.372Z,53.30
2019-03-12T23:52:45.759Z,52.40
2019-03-12T23:55:19.229Z,53.20
2019-03-12T23:57:51.140Z,53.80
